Latest METARs, TAFs and NOTAMs for MYNN


---------------------------------------------------------------------------
	(OBSERVATIONS)
MYNN 220100Z 15002KT 9999 FEW018 23/19 A2996=
MYNN 220000Z 00000KT 9999 FEW018 23/19 A2995=
MYNN 212300Z 17002KT 9999 FEW018 23/18 A2994=
---------------------------------------------------------------------------
	(TERMINAL AREA FORECAST)
MYNN 212100Z 2200/2224 17004KT 9999 FEW020
    BECMG 2209/2211 18012KT SCT020
    =
---------------------------------------------------------------------------
	(NOTAMS)


MYNN A0068/13 VOR Y RWY 14 FEEDER RTE FM MAJUR TO MUNIE NOT AVBL
    VOR Y RWY 14 FEEDER RTE FM MELON TO MUNIE NOT AVBL. SFC -
    UNL, 19 APR 19:55 2013 UNTIL PERM. CREATED: 19 APR 19:51
    2013

MYNN A0069/13 VOR Y RWY 09 FEEDER RTE FM MAJUR TO MUSSE NOT AVBL
    REMOVE PROCEDURE NOTE 'RADAR REQUIRED' FM APP CHART. SFC
    - UNL, 19 APR 19:55 2013 UNTIL PERM. CREATED: 19 APR 19:52
    2013

MYNN A0070/13 VOR Y RWY 32 FEEDER RTE FM PRUNE TO WELKS NOT AVBL
    REMOVE PROCEDURE NOTE 'RADAR REQUIRED' FM APP CHART. SFC
    - UNL, 19 APR 19:55 2013 UNTIL PERM. CREATED: 19 APR 19:54
    2013

MYNN A0108/15 INFORMATION LISTED IN AIC 3/2015 WITH THE EXCEPTION
    OF MYNN AND MYGF RNAV APCH PROC IN THE BAHAMAS ARE NOT AUTH
    DUE TO AIRSPACE CLASSIFICATION RESTRICTIONS. 01 JUN 18:00
    2015 UNTIL PERM. CREATED: 01 JUN 16:52 2015

MYNN A0316/16 WIE THE DEPARTMENT OF CIVIL AVIATION BANS ALL SAMSUNG
    GALAXY NOTE 7 PHONES FROM ACFT TRAVELLING IN THE BAHAMAS.
    DEVICES MAY NOT BE TRANSPORTED BY PASSENGERS OR CREW ON THEIR
    PERSON, IN CARRY-ON BAGGAGE, OR IN CHECKED BAGGAGE ON FLIGHTS
    TO, FROM, OR WITHIN THE COMMONWEALTH OF THE BAHAMAS AND CANNOT
    BE SHIPPED AS AIR CARGO. 20 OCT 15:30 2016 UNTIL PERM. CREATED:
    20 OCT 15:12 2016

MYNN A0375/16 RWY 09/27 AVBL FM HJ OPERATIONS RWY NOT AVBL FOR
    NGT OPERATIONS UNLESS IT IS AN EMERG SOLAR LIGHTS INSTALLED
    FOR EMERG ONLY. 15 DEC 23:00 2016 UNTIL 31 JAN 23:00 2017.
    CREATED: 15 DEC 19:48 2016

MYNN A0393/16 ATS WILL ONLY ACCEPT NON-CLOSURE PLN'S TO MYSM
    MYCA MYCX MYCH MYCB MYAP MYCI MYCP MYMM MYRP MYLD MYLS DUE
    TO LACK OF COM. 30 DEC 16:00 2016 UNTIL 31 MAR 23:59 2017.
    CREATED: 29 DEC 16:02 2016

MYNN A0395/16 CHECKLIST (A) SERIES YEAR=2010 0277 YEAR=2013 0068
    0069 0070 YEAR=2015 0108 YEAR=2016 0266 0291 0314 0316 0319
    0320 0321 0324 0329 0334 0340 0350 0352 0356 0357 0358 0375
    0379 0380 0381 0382 0383 0384 0385 0386 0387 0388 0389 0390
    0391 0392 0393 0394 LATEST PUBLICATIONS AIP AMDT 01/16 EFFECTIVE
    MAY 26, 2016 AIC 03/16. 30 DEC 16:00 2016 UNTIL 31 JAN 23:59
    2017. CREATED: 29 DEC 16:31 2016

MYNN B0047/16 CHECKLIST (B) SERIES YEAR=2016 0024 0028 0044 0045
    0046 LATEST PUBLICATIONS AIP AMDT 01/16 EFFECTIVE MAY 26,
    2016 AIC 03/16. 30 DEC 16:00 2016 UNTIL 31 JAN 23:59 2017.
    CREATED: 29 DEC 16:31 2016

---------------------------------------------------------------------------